createdAt,value
2018-10-09T00:03:31.685Z,97419.23
2018-10-09T00:08:26.223Z,97420.26
2018-10-09T00:13:20.792Z,97416.06
2018-10-09T00:18:15.398Z,97421.09
2018-10-09T00:23:09.977Z,97415.08
2018-10-09T00:28:04.496Z,97410.44
2018-10-09T00:32:59.069Z,97408.87
2018-10-09T00:37:53.688Z,97406.81
2018-10-09T00:42:49.429Z,97405.14
2018-10-09T00:47:44.047Z,97400.61
2018-10-09T00:52:38.660Z,97395.83
2018-10-09T00:57:33.213Z,97399.05
2018-10-09T01:02:27.852Z,97401.44
2018-10-09T01:07:22.641Z,97396.14
2018-10-09T01:12:17.224Z,97397.27
2018-10-09T01:17:11.737Z,97388.53
2018-10-09T01:22:06.318Z,97400.66
2018-10-09T01:27:00.797Z,97405.89
2018-10-09T01:31:55.403Z,97400.89
2018-10-09T01:36:50.053Z,97396.16
2018-10-09T01:41:44.548Z,97394.84
2018-10-09T01:46:39.076Z,97390.38
2018-10-09T01:51:33.677Z,97392.33
2018-10-09T01:56:28.183Z,97391.51
2018-10-09T02:01:22.679Z,97387.05
2018-10-09T02:06:17.589Z,97390.48
2018-10-09T02:11:12.163Z,97384.41
2018-10-09T02:16:07.210Z,97380.45
2018-10-09T02:21:01.852Z,97384.41
2018-10-09T02:25:56.425Z,97373.61
2018-10-09T02:30:50.950Z,97376.75
2018-10-09T02:35:45.449Z,97370.14
2018-10-09T02:40:40.027Z,97371.47
2018-10-09T02:45:34.610Z,97374.92
2018-10-09T02:50:29.193Z,97375.42
2018-10-09T02:55:23.729Z,97371.75
2018-10-09T03:00:18.466Z,97368.08
2018-10-09T03:05:13.119Z,97369.11
2018-10-09T03:10:08.222Z,97369.98
2018-10-09T03:15:02.758Z,97376.05
2018-10-09T03:19:57.292Z,97372.18
2018-10-09T03:24:51.847Z,97372.23
2018-10-09T03:29:46.517Z,97369.83
2018-10-09T03:34:41.098Z,97370.61
2018-10-09T03:39:35.672Z,97374.01
2018-10-09T03:44:30.200Z,97371.58
2018-10-09T03:49:24.728Z,97381.72
2018-10-09T03:54:19.436Z,97380.39
2018-10-09T03:59:14.036Z,97371.20
2018-10-09T04:04:08.807Z,97379.56
2018-10-09T04:09:03.499Z,97386.28
2018-10-09T04:13:58.003Z,97392.20
2018-10-09T04:18:52.562Z,97387.41
2018-10-09T04:23:47.172Z,97398.55
2018-10-09T04:28:41.754Z,97406.47
2018-10-09T04:33:36.310Z,97405.64
2018-10-09T04:38:31.052Z,97399.86
2018-10-09T04:43:25.961Z,97395.13
2018-10-09T04:48:21.423Z,97397.33
2018-10-09T04:53:16.129Z,97396.09
2018-10-09T04:58:10.897Z,97393.98
2018-10-09T05:03:05.584Z,97393.75
2018-10-09T05:08:05.144Z,97394.58
2018-10-09T05:13:00.147Z,97392.19
2018-10-09T05:17:54.855Z,97387.14
2018-10-09T05:22:49.536Z,97386.61
2018-10-09T05:27:44.274Z,97386.66
2018-10-09T05:32:39.013Z,97383.56
2018-10-09T05:37:33.801Z,97389.52
2018-10-09T05:42:28.464Z,97390.27
2018-10-09T05:47:27.930Z,97393.95
2018-10-09T05:52:22.415Z,97394.70
2018-10-09T05:57:16.829Z,97399.80
2018-10-09T06:02:11.917Z,97407.42
2018-10-09T06:07:06.367Z,97401.61
2018-10-09T06:12:00.769Z,97405.69
2018-10-09T06:16:55.831Z,97403.94
2018-10-09T06:21:50.432Z,97418.31
2018-10-09T06:26:45.754Z,97413.77
2018-10-09T06:31:40.351Z,97421.62
2018-10-09T06:36:36.583Z,97416.83
2018-10-09T06:41:31.762Z,97417.23
2018-10-09T06:46:26.659Z,97426.44
2018-10-09T06:51:27.014Z,97432.37
2018-10-09T06:56:21.836Z,97424.84
2018-10-09T07:01:16.403Z,97419.90
2018-10-09T07:06:19.469Z,97430.16
2018-10-09T07:11:17.366Z,97435.56
2018-10-09T07:16:12.016Z,97445.03
2018-10-09T07:21:09.731Z,97450.08
2018-10-09T07:26:04.442Z,97451.87
2018-10-09T07:30:59.634Z,97454.55
2018-10-09T07:35:54.354Z,97451.81
2018-10-09T07:40:49.044Z,97454.25
2018-10-09T07:45:45.546Z,97461.47
2018-10-09T07:50:40.556Z,97468.25
2018-10-09T07:55:45.054Z,97464.88
2018-10-09T08:00:43.383Z,97465.20
2018-10-09T08:05:39.183Z,97470.92
2018-10-09T08:10:43.508Z,97477.46
2018-10-09T08:15:39.168Z,97477.17
2018-10-09T08:20:44.936Z,97466.96
2018-10-09T08:25:40.785Z,97469.58
2018-10-09T08:30:35.445Z,97471.95
2018-10-09T08:35:31.321Z,97471.14
2018-10-09T08:40:27.780Z,97456.45
2018-10-09T08:45:22.464Z,97454.43
2018-10-09T08:50:28.421Z,97451.45
2018-10-09T08:55:33.973Z,97449.70
2018-10-09T09:00:48.819Z,97435.56
2018-10-09T09:05:51.929Z,97431.97
2018-10-09T09:10:57.431Z,97434.27
2018-10-09T09:16:03.382Z,97429.71
2018-10-09T09:21:03.241Z,97429.72
2018-10-09T09:25:58.807Z,97431.06
2018-10-09T09:31:10.786Z,97433.72
2018-10-09T09:36:07.325Z,97431.05
2018-10-09T09:41:04.061Z,97434.55
2018-10-09T09:45:59.453Z,97440.57
2018-10-09T09:50:54.196Z,97434.14
2018-10-09T09:55:50.163Z,97434.22
2018-10-09T10:00:50.352Z,97440.36
2018-10-09T10:05:45.217Z,97443.04
2018-10-09T10:10:39.737Z,97442.88
2018-10-09T10:15:34.424Z,97439.94
2018-10-09T10:20:29.224Z,97438.64
2018-10-09T10:25:24.380Z,97444.55
2018-10-09T10:30:19.048Z,97446.07
2018-10-09T10:35:15.206Z,97440.08
2018-10-09T10:40:10.439Z,97442.44
2018-10-09T10:45:05.196Z,97433.28
2018-10-09T10:50:00.672Z,97427.22
2018-10-09T10:54:55.780Z,97434.63
2018-10-09T10:59:50.670Z,97426.80
2018-10-09T11:04:45.304Z,97421.80
2018-10-09T11:09:43.237Z,97419.43
2018-10-09T11:14:41.942Z,97416.52
2018-10-09T11:19:37.599Z,97420.48
2018-10-09T11:24:32.371Z,97420.44
2018-10-09T11:29:27.105Z,97418.33
2018-10-09T11:34:23.634Z,97411.24
2018-10-09T11:39:18.633Z,97392.27
2018-10-09T11:44:13.220Z,97396.55
2018-10-09T11:49:08.017Z,97391.45
2018-10-09T11:54:02.576Z,97384.02
2018-10-09T11:58:57.226Z,97383.92
2018-10-09T12:03:51.636Z,97368.07
2018-10-09T12:08:46.077Z,97365.53
2018-10-09T12:13:40.516Z,97361.41
2018-10-09T12:18:34.944Z,97359.79
2018-10-09T12:23:29.380Z,97348.86
2018-10-09T12:28:24.047Z,97345.78
2018-10-09T12:33:18.537Z,97342.33
2018-10-09T12:38:13.672Z,97340.72
2018-10-09T12:43:10.565Z,97341.14
2018-10-09T12:48:05.373Z,97334.23
2018-10-09T12:53:03.229Z,97338.83
2018-10-09T12:57:58.257Z,97327.58
2018-10-09T13:02:54.801Z,97335.91
2018-10-09T13:07:49.502Z,97324.63
2018-10-09T13:12:46.714Z,97321.53
2018-10-09T13:17:52.031Z,97312.08
2018-10-09T13:22:46.692Z,97307.83
2018-10-09T13:27:41.853Z,97304.89
2018-10-09T13:32:37.596Z,97303.79
2018-10-09T13:37:32.628Z,97299.42
2018-10-09T13:42:42.310Z,97298.53
2018-10-09T13:47:52.259Z,97291.21
2018-10-09T13:52:58.880Z,97286.30
2018-10-09T13:58:10.180Z,97288.71
2018-10-09T14:03:21.242Z,97288.27
2018-10-09T14:08:34.025Z,97278.67
2018-10-09T14:19:09.127Z,97271.17
2018-10-09T14:29:28.798Z,97276.28
2018-10-09T14:34:41.926Z,97271.70
2018-10-09T14:39:48.582Z,97273.56
2018-10-09T14:44:54.601Z,97273.02
2018-10-09T14:55:14.157Z,97273.53
2018-10-09T15:16:24.041Z,97259.23
2018-10-09T15:21:32.758Z,97262.83
2018-10-09T15:26:41.325Z,97262.59
2018-10-09T15:31:51.767Z,97271.94
2018-10-09T15:42:26.588Z,97271.95
2018-10-09T15:47:39.080Z,97266.36
2018-10-09T15:52:48.684Z,97271.15
2018-10-09T15:57:53.523Z,97262.11
2018-10-09T16:19:15.993Z,97281.28
2018-10-09T16:24:28.952Z,97291.29
2018-10-09T16:29:42.076Z,97297.08
2018-10-09T16:36:07.248Z,97302.83
2018-10-09T16:41:02.202Z,97302.61
2018-10-09T16:45:56.882Z,97300.38
2018-10-09T17:07:06.962Z,97310.89
2018-10-09T17:12:02.553Z,97326.42
2018-10-09T17:16:57.122Z,97337.91
2018-10-09T17:21:51.696Z,97333.84
2018-10-09T17:26:46.393Z,97335.30
2018-10-09T17:47:55.922Z,97333.55
2018-10-09T17:52:50.637Z,97334.56
2018-10-09T17:57:45.333Z,97339.67
2018-10-09T18:02:40.043Z,97340.23
2018-10-09T18:07:35.374Z,97336.41
2018-10-09T18:12:29.993Z,97339.39
2018-10-09T18:17:24.676Z,97343.26
2018-10-09T18:22:19.211Z,97344.47
2018-10-09T18:27:13.746Z,97353.33
2018-10-09T18:48:23.071Z,97348.83
2018-10-09T18:53:18.896Z,97340.58
2018-10-09T18:58:13.478Z,97332.41
2018-10-09T19:03:08.511Z,97343.45
2018-10-09T19:08:03.108Z,97350.54
2018-10-09T19:29:12.618Z,97354.03
2018-10-09T19:34:07.181Z,97358.48
2018-10-09T19:39:01.861Z,97367.05
2018-10-09T19:43:56.748Z,97360.41
2018-10-09T19:48:51.297Z,97369.60
2018-10-09T20:10:00.164Z,97385.66
2018-10-09T20:14:55.278Z,97380.32
2018-10-09T20:19:49.846Z,97383.34
2018-10-09T20:24:44.591Z,97386.73
2018-10-09T20:29:39.373Z,97385.36
2018-10-09T20:39:59.160Z,97385.02
2018-10-09T20:44:53.806Z,97385.71
2018-10-09T20:49:48.383Z,97382.92
2018-10-09T20:54:43.010Z,97386.77
2018-10-09T21:15:52.827Z,97384.87
2018-10-09T21:20:47.423Z,97383.48
2018-10-09T21:25:41.962Z,97391.78
2018-10-09T21:30:36.542Z,97383.50
2018-10-09T21:35:31.078Z,97382.73
2018-10-09T21:56:40.744Z,97384.20
2018-10-09T22:01:35.344Z,97383.48
2018-10-09T22:06:29.900Z,97378.87
2018-10-09T22:11:24.439Z,97376.91
2018-10-09T22:16:19.313Z,97381.55
2018-10-09T22:37:28.440Z,97379.34
2018-10-09T22:42:22.985Z,97370.59
2018-10-09T22:47:17.529Z,97377.95
2018-10-09T22:52:12.114Z,97369.23
2018-10-09T22:57:06.690Z,97370.00
2018-10-09T23:07:25.967Z,97376.11
2018-10-09T23:12:20.585Z,97361.56
2018-10-09T23:17:15.129Z,97356.20
2018-10-09T23:22:09.684Z,97353.80
2018-10-09T23:43:18.549Z,97337.38
2018-10-09T23:48:13.077Z,97336.30
2018-10-09T23:53:07.746Z,97338.44
2018-10-09T23:58:02.315Z,97337.83
